Pereira Barreto, Brazil
Current Conditions -  °F | °C
As of 2:00 AM on Wednesday 26 Nov 2014 (Local Time) from SBDN Reporting Station
Light Rain Light Rain  
Wind Chill: 72°   Ceiling: 10000
Heat Index: 72°   Visibility: 6mi
Dew Point: 68°   Wind: 6mph
Humidity: 88%   Direction: 350°N
Pressure: 29.77"   Gusts: NA
Location:  20.63°S, 51.11°W
Report Text: SBDN 260400Z 35005KT 290V060 9999 -RA SCT008 OVC100 22/20 Q1008
Loading
Personal Weather Stations






























Interactive Weather Map New forecast layout! Learn more

10-Day Weather Forecast

Advertisements
Track Severe Weather on mobile